Time;durP1;ratioP1;P1;durP2;ratioP2;P2;SDS_P1;SDS_P2;PMS_P1;PMS_P2;Temp;Humidity;BMP_temperature;BMP_pressure;BME280_temperature;BME280_humidity;BME280_pressure;Samples;Min_cycle;Max_cycle;Signal;HPM_P1;HPM_P2
2023/09/12 00:01:52;;;;;;;10.33;8.03;;;;;;;20.62;100.00;97733.03;5055553;28;20571;-77
2023/09/12 00:04:18;;;;;;;13.20;8.60;;;;;;;20.56;100.00;97729.59;5055820;28;20212;-77
2023/09/12 00:06:44;;;;;;;11.77;8.63;;;;;;;20.58;100.00;97727.38;5055729;28;20213;-77
2023/09/12 00:09:11;;;;;;;10.50;8.10;;;;;;;20.64;100.00;97725.44;5055583;28;20221;-77
2023/09/12 00:11:37;;;;;;;13.70;7.97;;;;;;;20.63;100.00;97724.63;5055603;28;20279;-77
2023/09/12 00:14:04;;;;;;;10.20;8.43;;;;;;;20.59;100.00;97723.59;5055605;28;20205;-77
2023/09/12 00:16:30;;;;;;;9.83;7.97;;;;;;;20.58;100.00;97715.78;5055575;28;20201;-77
2023/09/12 00:18:56;;;;;;;12.77;8.70;;;;;;;20.55;100.00;97717.19;5055481;28;20229;-77
2023/09/12 00:21:22;;;;;;;12.77;8.60;;;;;;;20.56;100.00;97717.97;5055455;28;20201;-77
2023/09/12 00:23:49;;;;;;;13.37;8.30;;;;;;;20.54;100.00;97717.47;5055468;28;20201;-77
2023/09/12 00:26:15;;;;;;;12.47;8.37;;;;;;;20.62;100.00;97716.81;5055380;28;20287;-77
2023/09/12 00:28:42;;;;;;;10.37;8.87;;;;;;;20.61;100.00;97713.31;5055285;28;20225;-77
2023/09/12 00:31:08;;;;;;;11.93;8.37;;;;;;;20.56;100.00;97710.69;5055195;28;20221;-77
2023/09/12 00:33:35;;;;;;;14.43;9.40;;;;;;;20.53;100.00;97702.34;5055189;28;20205;-77
2023/09/12 00:36:01;;;;;;;16.63;8.87;;;;;;;20.52;100.00;97706.94;5055098;28;20205;-77
2023/09/12 00:38:28;;;;;;;11.97;8.70;;;;;;;20.50;100.00;97709.16;5055050;28;20221;-77
2023/09/12 00:40:54;;;;;;;12.03;8.93;;;;;;;20.52;100.00;97716.97;5055065;28;20209;-77
2023/09/12 00:43:20;;;;;;;18.23;9.33;;;;;;;20.48;100.00;97705.13;5054999;28;20209;-77
2023/09/12 00:45:47;;;;;;;10.53;8.93;;;;;;;20.45;100.00;97711.09;5054904;28;20205;-77
2023/09/12 00:48:14;;;;;;;11.17;8.43;;;;;;;20.39;100.00;97712.28;5054884;28;20225;-77
2023/09/12 00:50:42;;;;;;;11.23;8.67;;;;;;;20.34;100.00;97709.63;5053923;28;20219;-77
2023/09/12 00:53:09;;;;;;;12.07;8.63;;;;;;;20.30;100.00;97708.59;5054860;28;20212;-77
2023/09/12 00:55:40;;;;;;;12.77;8.37;;;;;;;20.29;100.00;97710.50;5054545;28;20209;-77
2023/09/12 00:58:07;;;;;;;10.37;9.17;;;;;;;20.24;100.00;97715.13;5054491;28;20235;-77
2023/09/12 01:00:34;;;;;;;11.87;9.13;;;;;;;20.11;100.00;97710.47;5054719;28;20212;-77
2023/09/12 01:03:01;;;;;;;15.60;8.87;;;;;;;20.11;100.00;97710.47;5054447;28;20668;-77
2023/09/12 01:05:29;;;;;;;13.37;8.53;;;;;;;20.05;100.00;97714.25;5054674;28;20205;-77
2023/09/12 01:07:56;;;;;;;10.73;8.63;;;;;;;20.04;100.00;97709.97;5054514;28;20231;-77
2023/09/12 01:10:23;;;;;;;10.07;8.50;;;;;;;20.01;100.00;97705.13;5054278;28;20201;-77
2023/09/12 01:12:49;;;;;;;12.43;9.23;;;;;;;19.95;100.00;97707.09;5054459;28;20232;-77
2023/09/12 01:15:16;;;;;;;11.80;8.83;;;;;;;19.93;100.00;97703.88;5054460;28;20207;-77
2023/09/12 01:17:44;;;;;;;12.00;8.60;;;;;;;19.94;100.00;97699.28;5054326;28;20225;-77
2023/09/12 01:20:31;;;;;;;12.70;8.90;;;;;;;19.97;100.00;97688.72;5054385;28;20212;-77
2023/09/12 01:23:36;;;;;;;11.37;8.97;;;;;;;20.02;100.00;97696.75;5054340;28;20191;-77
2023/09/12 01:26:32;;;;;;;11.80;9.20;;;;;;;20.01;100.00;97686.25;5053190;28;20201;-77
2023/09/12 01:29:00;;;;;;;12.23;9.20;;;;;;;20.02;100.00;97695.97;5053875;28;20225;-77
2023/09/12 01:31:27;;;;;;;12.80;9.30;;;;;;;20.01;100.00;97702.44;5053838;28;20592;-77
2023/09/12 01:33:57;;;;;;;11.50;9.10;;;;;;;20.00;100.00;97706.22;5054096;28;20206;-77
2023/09/12 01:36:23;;;;;;;10.90;8.73;;;;;;;19.96;100.00;97702.50;5053752;28;20568;-77
2023/09/12 01:38:50;;;;;;;12.00;8.83;;;;;;;19.94;100.00;97693.88;5054014;28;20221;-77
2023/09/12 01:41:16;;;;;;;11.00;8.57;;;;;;;19.86;100.00;97694.50;5053988;28;20201;-77
2023/09/12 01:43:44;;;;;;;9.63;8.63;;;;;;;19.88;100.00;97697.72;5052804;28;20224;-77
2023/09/12 01:46:10;;;;;;;10.23;8.63;;;;;;;19.85;100.00;97701.00;5053601;28;20205;-77
2023/09/12 01:48:38;;;;;;;9.80;8.50;;;;;;;19.88;100.00;97705.81;5053442;28;20712;-77
2023/09/12 01:51:06;;;;;;;10.30;9.20;;;;;;;19.92;100.00;97706.84;5053734;28;20205;-77
2023/09/12 01:53:35;;;;;;;11.83;9.17;;;;;;;19.87;100.00;97704.22;5053996;28;20216;-77
2023/09/12 01:56:02;;;;;;;12.17;8.63;;;;;;;19.89;100.00;97712.84;5053418;28;20295;-77
2023/09/12 01:58:29;;;;;;;12.00;9.20;;;;;;;19.87;100.00;97706.91;5053271;28;20260;-77
2023/09/12 02:00:56;;;;;;;13.33;9.13;;;;;;;19.91;100.00;97697.97;5052515;28;20211;-77
2023/09/12 02:03:22;;;;;;;10.57;8.83;;;;;;;19.89;100.00;97696.66;5053404;28;20205;-77
2023/09/12 02:05:49;;;;;;;11.33;9.20;;;;;;;19.74;100.00;97694.91;5053593;28;20208;-77
2023/09/12 02:08:15;;;;;;;12.00;9.10;;;;;;;19.75;100.00;97709.22;5053699;28;20730;-77
2023/09/12 02:10:41;;;;;;;13.07;9.53;;;;;;;19.77;100.00;97700.53;5053274;28;20727;-77
2023/09/12 02:13:08;;;;;;;12.37;9.03;;;;;;;19.76;100.00;97700.03;5052996;28;20224;-77
2023/09/12 02:15:34;;;;;;;12.80;9.37;;;;;;;19.77;100.00;97697.81;5053468;28;20209;-77
2023/09/12 02:18:00;;;;;;;10.83;8.63;;;;;;;19.78;100.00;97695.94;5053375;28;20221;-77
2023/09/12 02:20:27;;;;;;;12.03;8.97;;;;;;;19.73;100.00;97696.78;5053478;28;20217;-77
2023/09/12 02:22:53;;;;;;;11.00;8.50;;;;;;;19.76;100.00;97691.94;5053448;28;20201;-77
2023/09/12 02:25:19;;;;;;;12.23;9.33;;;;;;;19.69;100.00;97693.06;5053364;28;20202;-77
2023/09/12 02:27:46;;;;;;;14.10;9.50;;;;;;;19.71;100.00;97692.78;5053272;28;20229;-77
2023/09/12 02:30:12;;;;;;;13.90;9.13;;;;;;;19.71;100.00;97694.69;5053348;28;20215;-77
2023/09/12 02:32:38;;;;;;;11.87;9.23;;;;;;;19.72;100.00;97697.09;5052941;28;20584;-77
2023/09/12 02:35:05;;;;;;;13.80;9.43;;;;;;;19.73;100.00;97689.78;5052914;28;20292;-77
2023/09/12 02:37:31;;;;;;;12.43;9.17;;;;;;;19.75;100.00;97691.13;5052870;28;20247;-77
2023/09/12 02:39:58;;;;;;;11.77;8.83;;;;;;;19.72;100.00;97688.19;5053246;28;20211;-77
2023/09/12 02:42:25;;;;;;;17.23;9.83;;;;;;;19.72;100.00;97683.63;5053072;28;20197;-77
2023/09/12 02:44:52;;;;;;;11.83;9.23;;;;;;;19.66;100.00;97678.56;5053008;28;20209;-77
2023/09/12 02:47:18;;;;;;;13.67;9.93;;;;;;;19.72;100.00;97682.81;5053191;28;20650;-77
2023/09/12 02:49:45;;;;;;;12.53;10.20;;;;;;;19.62;100.00;97674.81;5052873;28;20212;-77
2023/09/12 02:52:11;;;;;;;14.20;9.50;;;;;;;19.59;100.00;97665.41;5052835;28;20217;-77
2023/09/12 02:54:37;;;;;;;13.57;9.87;;;;;;;19.58;100.00;97674.56;5053714;28;20207;-77
2023/09/12 02:57:04;;;;;;;11.33;9.60;;;;;;;19.57;100.00;97675.66;5052930;28;20212;-77
2023/09/12 02:59:31;;;;;;;12.03;9.73;;;;;;;19.58;100.00;97675.38;5052941;28;20208;-77
2023/09/12 03:01:57;;;;;;;14.03;9.50;;;;;;;19.49;100.00;97676.28;5052970;28;20209;-77
2023/09/12 03:04:26;;;;;;;15.63;9.90;;;;;;;19.48;100.00;97681.97;5052526;28;20205;-77
2023/09/12 03:06:52;;;;;;;9.73;8.70;;;;;;;19.46;100.00;97674.16;5052976;28;20216;-77
2023/09/12 03:09:19;;;;;;;14.10;9.43;;;;;;;19.36;100.00;97674.28;5053080;28;20211;-77
2023/09/12 03:11:45;;;;;;;15.97;9.67;;;;;;;19.40;100.00;97677.97;5052654;28;20618;-77
2023/09/12 03:14:12;;;;;;;11.87;10.20;;;;;;;19.31;100.00;97679.69;5054468;28;20215;-77
2023/09/12 03:16:39;;;;;;;12.37;9.67;;;;;;;19.27;100.00;97678.66;5056778;28;20213;-77
2023/09/12 03:19:05;;;;;;;15.27;10.37;;;;;;;19.24;100.00;97685.41;5056529;28;20229;-77
2023/09/12 03:21:32;;;;;;;11.93;9.17;;;;;;;19.25;100.00;97676.25;5056612;28;20212;-77
2023/09/12 03:23:58;;;;;;;14.03;9.27;;;;;;;19.20;100.00;97683.53;5056117;28;20726;-77
2023/09/12 03:26:25;;;;;;;10.33;9.07;;;;;;;19.16;100.00;97677.09;5056253;28;20212;-77
2023/09/12 03:28:51;;;;;;;17.07;9.70;;;;;;;19.14;100.00;97682.75;5056455;28;20240;-77
2023/09/12 03:31:17;;;;;;;12.20;9.30;;;;;;;19.16;100.00;97682.47;5056337;28;20570;-77
2023/09/12 03:33:47;;;;;;;14.70;9.60;;;;;;;19.15;100.00;97676.31;5056304;28;20212;-77
2023/09/12 03:36:14;;;;;;;14.90;9.97;;;;;;;19.10;100.00;97681.72;5056385;28;20208;-77
2023/09/12 03:38:40;;;;;;;10.80;9.37;;;;;;;19.20;100.00;97662.78;5055968;28;20603;-77
2023/09/12 03:41:07;;;;;;;13.00;9.50;;;;;;;19.27;100.00;97667.88;5055884;28;20565;-77
2023/09/12 03:43:34;;;;;;;14.07;10.10;;;;;;;19.21;100.00;97664.38;5056193;28;20591;-77
2023/09/12 03:46:01;;;;;;;14.53;9.53;;;;;;;19.26;100.00;97671.63;5056093;28;20205;-77
2023/09/12 03:48:30;;;;;;;12.63;9.30;;;;;;;19.27;100.00;97671.38;5055660;28;20225;-77
2023/09/12 03:50:56;;;;;;;10.90;9.37;;;;;;;19.22;100.00;97668.72;5055770;28;20569;-77
2023/09/12 03:53:23;;;;;;;12.23;9.90;;;;;;;19.17;100.00;97665.22;5055452;28;20588;-77
2023/09/12 03:55:49;;;;;;;11.00;9.07;;;;;;;19.08;100.00;97661.53;5055605;28;20216;-77
2023/09/12 03:58:15;;;;;;;14.13;10.07;;;;;;;19.07;100.00;97663.44;5055534;28;20233;-77
2023/09/12 04:00:42;;;;;;;12.73;9.80;;;;;;;19.07;100.00;97671.53;5055475;28;20579;-77
2023/09/12 04:03:08;;;;;;;12.00;10.27;;;;;;;19.06;100.00;97672.59;5055508;28;20566;-77
2023/09/12 04:05:34;;;;;;;13.10;9.87;;;;;;;18.90;100.00;97679.19;5055428;28;20212;-78
2023/09/12 04:08:01;;;;;;;16.83;9.90;;;;;;;19.02;100.00;97666.16;5055396;28;20251;-78
2023/09/12 04:10:27;;;;;;;12.03;10.03;;;;;;;18.90;100.00;97667.59;5055571;28;20201;-78
2023/09/12 04:12:53;;;;;;;14.73;10.83;;;;;;;18.87;100.00;97662.78;5055466;28;20221;-78
2023/09/12 04:15:20;;;;;;;12.50;10.27;;;;;;;18.92;100.00;97671.63;5055514;28;20205;-78
2023/09/12 04:17:46;;;;;;;14.70;10.60;;;;;;;18.88;100.00;97670.59;5055293;28;20229;-78
2023/09/12 04:20:13;;;;;;;18.00;10.17;;;;;;;18.92;100.00;97668.91;5055363;28;20215;-78
2023/09/12 04:22:41;;;;;;;15.17;10.63;;;;;;;18.93;100.00;97672.44;5055364;28;20251;-78
2023/09/12 04:25:07;;;;;;;14.13;10.13;;;;;;;18.94;100.00;97676.72;5055145;28;20610;-78
2023/09/12 04:27:35;;;;;;;15.70;10.73;;;;;;;18.84;100.00;97680.31;5055125;28;20222;-78
2023/09/12 04:30:01;;;;;;;13.30;9.93;;;;;;;18.88;100.00;97673.28;5055232;28;20209;-78
2023/09/12 04:32:27;;;;;;;12.13;10.00;;;;;;;18.85;100.00;97657.69;5054939;28;20232;-78
2023/09/12 04:34:54;;;;;;;13.83;9.20;;;;;;;18.89;100.00;97666.81;5054814;28;20216;-78
2023/09/12 04:37:20;;;;;;;14.73;9.83;;;;;;;18.93;100.00;97669.75;5054739;28;20225;-78
2023/09/12 04:39:46;;;;;;;13.83;10.13;;;;;;;18.81;100.00;97659.31;5054853;28;20205;-78
2023/09/12 04:42:13;;;;;;;14.43;10.20;;;;;;;18.97;100.00;97666.22;5054745;28;20207;-77
2023/09/12 04:44:41;;;;;;;16.63;10.60;;;;;;;18.97;100.00;97660.81;5054662;28;20202;-77
2023/09/12 04:47:07;;;;;;;20.90;10.90;;;;;;;18.97;100.00;97663.53;5054568;28;20209;-77
2023/09/12 04:49:34;;;;;;;14.60;9.93;;;;;;;18.94;100.00;97665.94;5054947;28;20240;-77
2023/09/12 04:52:00;;;;;;;17.33;10.10;;;;;;;18.87;100.00;97668.97;5054722;28;20221;-77
2023/09/12 04:54:27;;;;;;;15.10;10.87;;;;;;;18.84;100.00;97664.16;5054412;28;20209;-77
2023/09/12 04:56:53;;;;;;;16.33;10.07;;;;;;;18.86;100.00;97664.66;5054218;28;20688;-77
2023/09/12 04:59:20;;;;;;;14.17;10.60;;;;;;;18.80;100.00;97663.09;5054045;28;20212;-77
2023/09/12 05:01:46;;;;;;;17.30;10.70;;;;;;;18.84;100.00;97664.16;5054094;28;20260;-77
2023/09/12 05:04:13;;;;;;;17.53;10.40;;;;;;;18.85;100.00;97668.44;5054296;28;20599;-77
2023/09/12 05:06:39;;;;;;;15.27;10.90;;;;;;;18.92;100.00;97666.22;5053837;28;20564;-77
2023/09/12 05:09:08;;;;;;;11.67;9.60;;;;;;;18.90;100.00;97670.28;5053864;28;20253;-77
2023/09/12 05:11:35;;;;;;;14.67;10.20;;;;;;;18.90;100.00;97668.41;5054542;28;20295;-77
2023/09/12 05:14:03;;;;;;;12.17;10.30;;;;;;;18.96;100.00;97669.97;5053534;28;20306;-77
2023/09/12 05:16:30;;;;;;;11.93;10.17;;;;;;;18.97;100.00;97673.47;5054031;28;20291;-77
2023/09/12 05:18:56;;;;;;;14.23;10.77;;;;;;;19.00;100.00;97671.03;5053924;28;20221;-77
2023/09/12 05:21:22;;;;;;;15.40;10.03;;;;;;;19.02;100.00;97676.94;5053923;28;20201;-77
2023/09/12 05:23:49;;;;;;;12.87;11.23;;;;;;;19.15;100.00;97670.91;5054069;28;20205;-77
2023/09/12 05:26:15;;;;;;;15.70;10.53;;;;;;;19.14;100.00;97669.28;5054428;28;20205;-77
2023/09/12 05:28:42;;;;;;;15.63;9.80;;;;;;;19.17;100.00;97666.03;5053151;28;20324;-77
2023/09/12 05:31:08;;;;;;;11.57;10.37;;;;;;;19.15;100.00;97668.22;5053924;28;20201;-77
2023/09/12 05:33:34;;;;;;;14.43;10.07;;;;;;;19.16;100.00;97667.13;5053613;28;20228;-77
2023/09/12 05:36:01;;;;;;;11.70;10.50;;;;;;;19.23;100.00;97674.91;5053198;28;20690;-77
2023/09/12 05:38:27;;;;;;;12.23;9.83;;;;;;;19.15;100.00;97676.31;5053081;28;20232;-77
2023/09/12 05:40:54;;;;;;;17.87;10.67;;;;;;;19.20;100.00;97688.91;5053672;28;20208;-78
2023/09/12 05:43:20;;;;;;;16.50;9.97;;;;;;;19.18;100.00;97686.50;5053321;28;20201;-78
2023/09/12 05:45:46;;;;;;;12.60;9.70;;;;;;;19.23;100.00;97683.00;5053208;28;20209;-78
2023/09/12 05:48:13;;;;;;;11.90;9.03;;;;;;;19.38;100.00;97680.97;5052951;28;20229;-78
2023/09/12 05:50:39;;;;;;;13.83;10.53;;;;;;;19.46;100.00;97687.66;5054012;28;20201;-78
2023/09/12 05:53:06;;;;;;;15.27;10.37;;;;;;;19.53;100.00;97682.72;5052581;28;20659;-78
2023/09/12 05:55:32;;;;;;;14.43;9.90;;;;;;;19.76;100.00;97689.22;5052659;28;20649;-78
2023/09/12 05:57:58;;;;;;;13.53;9.63;;;;;;;19.77;100.00;97688.13;5052856;28;20734;-78
2023/09/12 06:00:25;;;;;;;14.00;9.87;;;;;;;19.80;100.00;97687.56;5053311;28;20207;-78
2023/09/12 06:02:51;;;;;;;12.37;9.37;;;;;;;19.87;100.00;97688.03;5053694;28;20197;-77
2023/09/12 06:05:17;;;;;;;10.47;9.33;;;;;;;19.94;100.00;97693.88;5053512;28;20205;-77
2023/09/12 06:07:44;;;;;;;13.60;9.83;;;;;;;19.97;100.00;97696.81;5053240;28;20235;-78
2023/09/12 06:10:10;;;;;;;10.53;9.43;;;;;;;20.08;100.00;97694.81;5052863;28;20767;-78
2023/09/12 06:12:37;;;;;;;12.90;9.53;;;;;;;20.09;100.00;97688.34;5053149;28;20233;-77
2023/09/12 06:15:04;;;;;;;12.93;9.37;;;;;;;20.14;100.00;97699.06;5053142;28;20205;-78
2023/09/12 06:17:31;;;;;;;12.83;9.73;;;;;;;20.18;100.00;97705.50;5052604;28;20232;-77
2023/09/12 06:19:58;;;;;;;15.17;9.77;;;;;;;20.18;100.00;97705.50;5052750;28;20664;-78
2023/09/12 06:22:24;;;;;;;12.67;10.00;;;;;;;20.05;100.00;97704.28;5052904;28;20208;-78
2023/09/12 06:24:52;;;;;;;12.97;10.70;;;;;;;20.09;100.00;97710.75;5052781;28;20209;-78
2023/09/12 06:27:19;;;;;;;12.47;9.67;;;;;;;20.10;100.00;97708.84;5052717;28;20235;-78
2023/09/12 06:29:48;;;;;;;14.47;10.13;;;;;;;20.20;100.00;97697.91;5053025;28;20201;-78
2023/09/12 06:32:14;;;;;;;16.50;10.87;;;;;;;20.29;100.00;97710.50;5052595;28;20611;-78
2023/09/12 06:34:41;;;;;;;12.40;10.23;;;;;;;20.29;100.00;97715.88;5052596;28;20205;-77
2023/09/12 06:37:07;;;;;;;12.63;9.50;;;;;;;20.55;100.00;97717.19;5051938;28;20585;-77
2023/09/12 06:39:33;;;;;;;10.73;9.33;;;;;;;20.40;100.00;97716.56;5050776;28;20209;-77
2023/09/12 06:42:00;;;;;;;12.63;9.77;;;;;;;20.41;100.00;97712.78;5050861;28;20208;-78
2023/09/12 06:44:26;;;;;;;13.23;9.60;;;;;;;20.35;100.00;97717.41;5050311;28;20684;-78
2023/09/12 06:46:52;;;;;;;12.70;9.63;;;;;;;20.44;100.00;97715.69;5050667;28;20212;-78
2023/09/12 06:49:19;;;;;;;14.67;9.37;;;;;;;20.54;100.00;97714.75;5052540;28;20201;-78
2023/09/12 06:51:45;;;;;;;12.60;9.47;;;;;;;20.60;100.00;97713.59;5054698;28;20221;-78
2023/09/12 06:54:12;;;;;;;16.77;10.30;;;;;;;20.64;100.00;97725.44;5056807;28;20589;-78
2023/09/12 06:56:41;;;;;;;10.80;8.67;;;;;;;20.64;100.00;97731.63;5056683;28;20209;-78
2023/09/12 06:59:08;;;;;;;12.50;9.77;;;;;;;20.70;100.00;97730.47;5056209;28;20236;-77
2023/09/12 07:01:34;;;;;;;11.37;9.07;;;;;;;20.72;100.00;97731.00;5056477;28;20676;-78
2023/09/12 07:04:01;;;;;;;14.23;9.30;;;;;;;20.69;100.00;97734.28;5056488;28;20205;-78
2023/09/12 07:06:28;;;;;;;13.73;9.90;;;;;;;20.84;100.00;97741.38;5056220;28;20676;-78
2023/09/12 07:08:54;;;;;;;12.10;9.87;;;;;;;20.91;100.00;97737.25;5056473;28;20221;-78
2023/09/12 07:11:21;;;;;;;13.33;9.30;;;;;;;21.05;100.00;97745.41;5056559;28;20205;-78
2023/09/12 07:13:47;;;;;;;15.20;10.10;;;;;;;21.15;100.00;97745.25;5056320;28;20235;-78
2023/09/12 07:16:14;;;;;;;15.73;9.43;;;;;;;21.10;100.00;97746.13;5055656;28;20208;-77
2023/09/12 07:18:40;;;;;;;13.83;9.57;;;;;;;21.12;100.00;97749.34;5055756;28;20827;-77
2023/09/12 07:21:07;;;;;;;11.80;8.93;;;;;;;21.24;100.00;97747.00;5056315;28;20205;-76
2023/09/12 07:23:34;;;;;;;12.17;9.30;;;;;;;21.33;100.00;97756.03;5056169;28;20205;-76
2023/09/12 07:26:00;;;;;;;17.13;10.17;;;;;;;21.48;100.00;97752.31;5056080;28;20315;-76
2023/09/12 07:28:27;;;;;;;17.07;10.13;;;;;;;21.58;100.00;97754.84;5056058;28;20225;-76
2023/09/12 07:30:57;;;;;;;13.90;9.97;;;;;;;21.64;100.00;97761.75;5056289;28;20209;-76
2023/09/12 07:33:24;;;;;;;14.40;10.27;;;;;;;21.57;100.00;97766.75;5055788;28;20727;-76
2023/09/12 07:35:53;;;;;;;13.80;10.03;;;;;;;21.60;100.00;97758.84;5056283;28;20205;-76
2023/09/12 07:38:20;;;;;;;13.53;9.87;;;;;;;21.57;100.00;97756.72;5055792;28;20595;-75
2023/09/12 07:40:46;;;;;;;14.90;10.73;;;;;;;21.65;100.00;97752.53;5055979;28;20206;-75
2023/09/12 07:43:13;;;;;;;13.98;9.80;;;;;;;21.60;100.00;97750.72;5055902;28;20201;-75
2023/09/12 07:45:39;;;;;;;14.93;10.20;;;;;;;21.63;100.00;97755.56;5055613;28;20583;-76
2023/09/12 07:48:10;;;;;;;18.63;10.27;;;;;;;21.73;100.00;97760.00;5055496;28;20225;-75
2023/09/12 07:50:38;;;;;;;20.08;10.32;;;;;;;22.17;100.00;97752.16;5055552;28;20202;-75
2023/09/12 07:53:05;;;;;;;12.65;9.60;;;;;;;22.21;100.00;97755.88;5055680;28;20232;-75
2023/09/12 07:55:36;;;;;;;18.33;10.20;;;;;;;22.29;100.00;97752.47;5055695;28;20205;-75
2023/09/12 07:58:03;;;;;;;18.48;9.98;;;;;;;22.32;100.00;97754.56;5055141;28;20725;-75
2023/09/12 08:00:30;;;;;;;12.90;9.10;;;;;;;22.40;100.00;97754.69;5055280;28;20201;-75
2023/09/12 08:02:56;;;;;;;13.73;9.30;;;;;;;22.43;100.00;97758.69;5055765;28;20255;-75
2023/09/12 08:05:23;;;;;;;15.52;9.27;;;;;;;22.43;100.00;97750.56;5055596;28;20209;-75
2023/09/12 08:07:49;;;;;;;11.82;8.57;;;;;;;22.62;100.00;97756.69;5055484;28;20229;-75
2023/09/12 08:10:15;;;;;;;13.52;9.25;;;;;;;22.65;100.00;97756.88;5055532;28;20205;-75
2023/09/12 08:12:41;;;;;;;16.15;8.90;;;;;;;22.65;100.00;97761.53;5055380;28;20205;-75
2023/09/12 08:15:08;;;;;;;16.80;9.55;;;;;;;22.96;100.00;97760.53;5056345;28;20536;-75
2023/09/12 08:17:35;;;;;;;14.55;9.63;;;;;;;22.84;100.00;97762.19;5055369;28;20237;-75
2023/09/12 08:20:01;;;;;;;16.63;9.63;;;;;;;22.93;100.00;97763.84;5055448;28;20288;-75
2023/09/12 08:22:28;;;;;;;15.80;9.73;;;;;;;23.04;100.00;97767.16;5055138;28;20582;-75
2023/09/12 08:24:54;;;;;;;11.50;9.60;;;;;;;23.39;100.00;97771.78;5055364;28;20201;-75
2023/09/12 08:27:21;;;;;;;11.70;9.75;;;;;;;23.47;100.00;97769.13;5055011;28;20225;-75
2023/09/12 08:29:48;;;;;;;15.30;9.38;;;;;;;23.38;100.00;97756.63;5055109;28;20327;-75
2023/09/12 08:32:14;;;;;;;13.68;9.75;;;;;;;23.48;100.00;97761.81;5054572;28;20224;-75
2023/09/12 08:34:41;;;;;;;12.48;9.20;;;;;;;23.55;100.00;97759.44;5054540;28;20665;-75
2023/09/12 08:37:07;;;;;;;15.13;9.45;;;;;;;23.43;100.00;97762.72;5054544;28;20660;-75
2023/09/12 08:39:44;;;;;;;17.23;9.50;;;;;;;23.56;100.00;97763.78;5054730;28;20209;-76
2023/09/12 08:42:14;;;;;;;17.45;9.88;;;;;;;23.63;100.00;97756.81;5055120;28;20205;-75
2023/09/12 08:44:44;;;;;;;12.68;8.80;;;;;;;23.59;100.00;97769.38;5055066;28;20205;-75
2023/09/12 08:47:12;;;;;;;12.95;9.45;;;;;;;23.65;100.00;97762.72;5054352;28;20645;-75
2023/09/12 08:49:39;;;;;;;13.50;8.68;;;;;;;23.90;100.00;97767.53;5054863;28;20208;-75
2023/09/12 08:52:06;;;;;;;14.55;9.05;;;;;;;23.91;100.00;97768.31;5054373;28;20213;-75
2023/09/12 08:54:33;;;;;;;12.77;8.93;;;;;;;24.05;100.00;97764.41;5053965;28;20695;-75
2023/09/12 08:57:03;;;;;;;12.20;9.05;;;;;;;24.24;100.00;97770.41;5053940;28;20205;-75
2023/09/12 08:59:30;;;;;;;14.70;9.77;;;;;;;24.53;98.93;97759.00;5054501;28;20216;-75
2023/09/12 09:01:58;;;;;;;15.55;10.23;;;;;;;24.55;100.00;97756.78;5054217;28;20661;-75
2023/09/12 09:04:26;;;;;;;14.80;9.80;;;;;;;24.66;100.00;97758.94;5054518;28;20197;-75
2023/09/12 09:06:54;;;;;;;16.38;10.30;;;;;;;24.72;98.52;97746.78;5054025;28;20668;-75
2023/09/12 09:09:22;;;;;;;15.25;10.18;;;;;;;24.83;98.87;97755.44;5054848;28;20216;-75
2023/09/12 09:11:48;;;;;;;15.27;9.82;;;;;;;24.98;96.97;97755.78;5053224;28;20695;-75
2023/09/12 09:14:15;;;;;;;12.20;9.40;;;;;;;25.11;96.70;97756.75;5053914;28;20769;-75
2023/09/12 09:16:41;;;;;;;12.35;8.80;;;;;;;25.30;95.86;97760.00;5054136;28;20212;-75
2023/09/12 09:19:09;;;;;;;15.43;9.80;;;;;;;25.27;96.03;97750.56;5053795;28;20716;-75
2023/09/12 09:21:37;;;;;;;16.58;10.40;;;;;;;25.25;95.80;97749.25;5054022;28;20217;-75
2023/09/12 09:24:08;;;;;;;15.88;10.00;;;;;;;25.37;96.50;97752.16;5054242;28;20210;-76
2023/09/12 09:26:48;;;;;;;12.85;10.00;;;;;;;25.66;93.19;97750.38;5053789;28;20555;-75
2023/09/12 09:29:20;;;;;;;11.75;10.00;;;;;;;25.61;93.22;97744.28;5053538;28;20675;-75
2023/09/12 09:31:49;;;;;;;12.23;8.95;;;;;;;25.63;94.22;97739.28;5053969;28;20198;-75
2023/09/12 09:34:17;;;;;;;15.40;9.73;;;;;;;25.85;92.41;97734.44;5053449;28;20611;-75
2023/09/12 09:36:44;;;;;;;13.32;9.68;;;;;;;25.85;91.76;97725.47;5053479;28;20690;-75
2023/09/12 09:39:11;;;;;;;11.93;9.38;;;;;;;26.04;89.45;97726.72;5053522;28;20235;-75
2023/09/12 09:41:38;;;;;;;11.02;9.32;;;;;;;26.10;88.94;97721.91;5053633;28;20205;-75
2023/09/12 09:44:09;;;;;;;10.20;7.80;;;;;;;26.29;87.18;97720.38;5053730;28;20227;-75
2023/09/12 09:46:37;;;;;;;12.27;8.63;;;;;;;26.35;88.96;97723.72;5053860;28;20201;-75
2023/09/12 09:49:06;;;;;;;11.98;8.73;;;;;;;26.67;88.42;97720.34;5053232;28;20571;-74
2023/09/12 09:51:32;;;;;;;12.00;8.80;;;;;;;26.62;88.07;97732.25;5054138;28;20216;-74
2023/09/12 09:54:00;;;;;;;9.57;8.60;;;;;;;26.79;89.24;97726.72;5053462;28;20221;-74
2023/09/12 09:56:27;;;;;;;12.23;8.15;;;;;;;26.33;83.46;97729.47;5053233;28;20209;-74
2023/09/12 09:58:57;;;;;;;9.32;8.23;;;;;;;26.82;84.78;97727.97;5053014;28;20233;-74
2023/09/12 10:01:28;;;;;;;9.73;8.50;;;;;;;26.64;84.97;97721.81;5053500;28;20209;-74
2023/09/12 10:03:58;;;;;;;10.18;8.45;;;;;;;26.79;84.53;97720.44;5053794;28;20196;-75
2023/09/12 10:06:27;;;;;;;9.05;8.25;;;;;;;27.03;84.24;97712.38;5053240;28;20663;-75
2023/09/12 10:08:54;;;;;;;10.45;8.02;;;;;;;27.13;83.62;97705.75;5035732;28;20225;-75
2023/09/12 10:11:26;;;;;;;10.80;7.95;;;;;;;27.20;78.61;97708.75;5053366;28;20227;-74
2023/09/12 10:13:57;;;;;;;10.30;7.70;;;;;;;27.12;80.77;97704.94;5053505;28;20229;-75
2023/09/12 10:16:25;;;;;;;8.93;7.53;;;;;;;27.26;79.54;97700.03;5053442;28;20243;-74
2023/09/12 10:19:25;;;;;;;9.98;7.55;;;;;;;27.48;80.58;97707.84;5052908;28;20638;-75
2023/09/12 10:22:23;;;;;;;11.27;8.07;;;;;;;27.40;78.51;97706.00;5053126;28;20199;-75
2023/09/12 10:24:51;;;;;;;10.40;7.90;;;;;;;27.38;77.39;97705.53;5039805;28;20197;-74
2023/09/12 10:27:20;;;;;;;10.52;7.75;;;;;;;27.67;75.70;97701.88;5053108;28;20224;-74
2023/09/12 10:29:48;;;;;;;10.30;8.85;;;;;;;27.80;76.51;97709.78;5053107;28;20208;-74
2023/09/12 10:32:15;;;;;;;12.30;7.40;;;;;;;27.57;75.46;97707.78;5053224;28;20254;-74
2023/09/12 10:34:45;;;;;;;8.00;6.70;;;;;;;27.97;75.40;97708.81;5052779;28;20225;-74
2023/09/12 10:37:16;;;;;;;8.95;7.43;;;;;;;27.89;75.42;97707.78;5035172;28;20232;-74
2023/09/12 10:39:44;;;;;;;9.98;6.88;;;;;;;27.92;77.59;97707.09;5035711;28;20194;-74
2023/09/12 10:42:12;;;;;;;8.57;7.18;;;;;;;27.96;77.31;97704.47;5053022;28;20231;-74
2023/09/12 10:44:39;;;;;;;10.90;7.60;;;;;;;27.97;74.94;97700.59;5052757;28;20718;-74
2023/09/12 10:47:06;;;;;;;8.02;7.15;;;;;;;28.43;74.55;97703.75;5052970;28;20205;-74
2023/09/12 10:49:33;;;;;;;10.52;7.75;;;;;;;28.59;75.44;97698.38;5052589;28;20573;-74
2023/09/12 10:51:59;;;;;;;13.30;7.93;;;;;;;28.26;76.44;97694.94;5052561;28;20211;-74
2023/09/12 10:54:36;;;;;;;8.77;7.88;;;;;;;28.07;76.11;97695.50;5052506;28;20713;-74
2023/09/12 10:57:08;;;;;;;10.40;8.00;;;;;;;28.19;75.88;97700.19;5052544;28;20283;-74
2023/09/12 10:59:36;;;;;;;9.15;7.85;;;;;;;28.27;76.70;97697.34;5052989;28;20196;-75
2023/09/12 11:02:28;;;;;;;12.38;7.47;;;;;;;28.74;73.93;97698.47;5052909;28;20267;-74
2023/09/12 11:04:54;;;;;;;8.55;7.57;;;;;;;28.42;72.69;97704.88;5052632;28;20205;-74
2023/09/12 11:07:33;;;;;;;10.50;7.70;;;;;;;28.62;75.66;97692.22;5052778;28;20231;-74
2023/09/12 11:10:16;;;;;;;10.00;7.07;;;;;;;28.68;73.99;97683.44;5051477;28;20884;-74
2023/09/12 11:12:44;;;;;;;9.65;7.20;;;;;;;28.57;70.45;97681.53;5052694;28;20205;-74
2023/09/12 11:15:10;;;;;;;11.48;7.05;;;;;;;28.70;71.43;97678.41;5053153;28;20231;-74
2023/09/12 11:17:50;;;;;;;10.05;6.78;;;;;;;28.63;72.06;97671.94;5052646;28;20231;-74
2023/09/12 11:20:18;;;;;;;9.20;7.45;;;;;;;29.00;70.74;97677.03;5052679;28;20298;-75